createdAt,value
2016-10-18T00:00:41.504Z,99.99
2016-10-18T00:01:41.486Z,99.99
2016-10-18T00:02:41.475Z,99.99
2016-10-18T00:03:41.496Z,99.99
2016-10-18T00:04:41.446Z,99.99
2016-10-18T00:05:41.430Z,99.99
2016-10-18T00:06:41.729Z,99.99
2016-10-18T00:07:41.717Z,99.99
2016-10-18T00:08:41.387Z,99.99
2016-10-18T00:09:41.373Z,99.99
2016-10-18T00:10:41.364Z,99.99
2016-10-18T00:11:41.342Z,99.99
2016-10-18T00:12:41.327Z,99.99
2016-10-18T00:13:41.364Z,99.99
2016-10-18T00:14:41.607Z,99.99
2016-10-18T00:15:41.279Z,99.99
2016-10-18T00:16:41.264Z,99.99
2016-10-18T00:17:41.250Z,99.99
2016-10-18T00:18:41.239Z,99.99
2016-10-18T00:19:41.242Z,99.99
2016-10-18T00:20:41.221Z,99.99
2016-10-18T00:21:41.266Z,99.99
2016-10-18T00:22:41.176Z,99.99
2016-10-18T00:23:41.159Z,99.99
2016-10-18T00:24:41.160Z,99.99
2016-10-18T00:25:41.135Z,99.99
2016-10-18T00:26:41.113Z,99.99
2016-10-18T00:27:41.104Z,99.99
2016-10-18T00:28:41.087Z,99.99
2016-10-18T00:29:41.070Z,99.99
2016-10-18T00:30:41.057Z,99.99
2016-10-18T00:31:41.040Z,99.99
2016-10-18T00:32:41.025Z,99.99
2016-10-18T00:33:41.012Z,99.99
2016-10-18T00:34:40.998Z,99.99
2016-10-18T00:35:40.989Z,99.99
2016-10-18T00:36:40.965Z,99.99
2016-10-18T00:37:40.951Z,99.99
2016-10-18T00:38:41.252Z,99.99
2016-10-18T00:39:40.923Z,99.99
2016-10-18T00:40:40.910Z,99.99
2016-10-18T00:41:40.927Z,99.99
2016-10-18T00:42:40.877Z,99.99
2016-10-18T00:43:40.861Z,99.99
2016-10-18T00:44:40.854Z,99.99
2016-10-18T00:45:40.835Z,99.99
2016-10-18T00:46:40.818Z,99.99
2016-10-18T00:47:40.803Z,99.99
2016-10-18T00:48:40.826Z,99.99
2016-10-18T00:49:40.772Z,99.99
2016-10-18T00:50:40.754Z,99.99
2016-10-18T00:51:40.742Z,99.99
2016-10-18T00:52:40.765Z,99.99
2016-10-18T00:53:40.712Z,99.99
2016-10-18T00:54:40.697Z,99.99
2016-10-18T00:55:40.683Z,99.99
2016-10-18T00:56:40.666Z,99.99
2016-10-18T00:57:40.647Z,99.99
2016-10-18T00:58:40.642Z,99.99
2016-10-18T00:59:40.624Z,99.99
2016-10-18T01:00:40.612Z,99.99
2016-10-18T01:01:40.595Z,99.99
2016-10-18T01:02:40.576Z,99.99
2016-10-18T01:03:40.566Z,99.99
2016-10-18T01:04:40.550Z,99.99
2016-10-18T01:05:40.845Z,99.99
2016-10-18T01:06:40.520Z,99.99
2016-10-18T01:07:40.504Z,99.99
2016-10-18T01:08:40.490Z,99.99
2016-10-18T01:09:40.507Z,99.99
2016-10-18T01:10:40.456Z,99.99
2016-10-18T01:11:40.448Z,99.99
2016-10-18T01:12:40.462Z,99.99
2016-10-18T01:13:40.413Z,99.99
2016-10-18T01:14:40.397Z,99.99
2016-10-18T01:15:40.386Z,99.99
2016-10-18T01:16:40.368Z,99.99
2016-10-18T01:17:40.351Z,99.99
2016-10-18T01:18:40.538Z,99.99
2016-10-18T01:19:40.319Z,99.99
2016-10-18T01:20:40.305Z,99.99
2016-10-18T01:21:40.352Z,99.99
2016-10-18T01:22:40.322Z,99.99
2016-10-18T01:23:40.314Z,99.99
2016-10-18T01:24:40.247Z,99.99
2016-10-18T01:25:40.231Z,99.99
2016-10-18T01:26:40.213Z,99.99
2016-10-18T01:27:40.223Z,99.99
2016-10-18T01:28:40.188Z,99.99
2016-10-18T01:29:40.170Z,99.99
2016-10-18T01:30:40.154Z,99.99
2016-10-18T01:31:40.138Z,99.99
2016-10-18T01:32:40.127Z,99.99
2016-10-18T01:33:40.109Z,99.99
2016-10-18T01:34:40.106Z,99.99
2016-10-18T01:35:40.082Z,99.99
2016-10-18T01:36:40.062Z,99.99
2016-10-18T01:37:40.093Z,99.99
2016-10-18T01:38:40.031Z,99.99
2016-10-18T01:39:40.015Z,99.99
2016-10-18T01:40:40.003Z,99.99
2016-10-18T01:41:40.300Z,99.99
2016-10-18T01:42:39.972Z,99.99
2016-10-18T01:43:39.959Z,99.99
2016-10-18T01:44:39.939Z,99.99
2016-10-18T01:45:39.923Z,99.99
2016-10-18T01:46:39.911Z,99.99
2016-10-18T01:47:40.206Z,99.99
2016-10-18T01:48:39.875Z,99.99
2016-10-18T01:49:39.861Z,99.99
2016-10-18T01:50:39.846Z,99.99
2016-10-18T01:51:39.832Z,99.99
2016-10-18T01:52:39.813Z,99.99
2016-10-18T01:53:39.799Z,99.99
2016-10-18T01:54:39.784Z,99.99
2016-10-18T01:55:40.081Z,99.99
2016-10-18T01:56:40.064Z,99.99
2016-10-18T01:57:39.736Z,99.99
2016-10-18T01:58:39.724Z,99.99
2016-10-18T01:59:39.710Z,99.99
2016-10-18T02:00:39.690Z,99.99
2016-10-18T02:01:39.675Z,99.99
2016-10-18T02:02:39.660Z,99.99
2016-10-18T02:03:39.644Z,99.99
2016-10-18T02:04:39.633Z,99.99
2016-10-18T02:05:39.612Z,99.99
2016-10-18T02:06:39.599Z,99.99
2016-10-18T02:07:39.619Z,99.99
2016-10-18T02:08:39.566Z,99.99
2016-10-18T02:09:39.548Z,99.99
2016-10-18T02:10:39.564Z,99.99
2016-10-18T02:11:39.518Z,99.99
2016-10-18T02:12:39.503Z,99.99
2016-10-18T02:13:39.490Z,99.99
2016-10-18T02:14:39.473Z,99.99
2016-10-18T02:15:39.458Z,99.99
2016-10-18T02:16:39.758Z,99.99
2016-10-18T02:17:39.739Z,99.99
2016-10-18T02:18:39.409Z,99.99
2016-10-18T02:19:39.397Z,99.99
2016-10-18T02:20:39.381Z,99.99
2016-10-18T02:21:39.363Z,99.99
2016-10-18T02:22:39.351Z,99.99
2016-10-18T02:23:39.331Z,99.99
2016-10-18T02:24:39.315Z,99.99
2016-10-18T02:25:39.301Z,99.99
2016-10-18T02:26:39.286Z,99.99
2016-10-18T02:27:39.271Z,99.99
2016-10-18T02:28:39.255Z,99.99
2016-10-18T02:29:39.239Z,99.99
2016-10-18T02:30:39.228Z,99.99
2016-10-18T02:31:39.213Z,99.99
2016-10-18T02:32:39.192Z,99.99
2016-10-18T02:33:39.176Z,99.99
2016-10-18T02:34:39.475Z,99.99
2016-10-18T02:35:39.149Z,99.99
2016-10-18T02:36:39.132Z,99.99
2016-10-18T02:37:39.115Z,99.99
2016-10-18T02:38:39.099Z,99.99
2016-10-18T02:39:39.082Z,99.99
2016-10-18T02:40:39.071Z,99.99
2016-10-18T02:41:39.058Z,99.99
2016-10-18T02:42:39.038Z,99.99
2016-10-18T02:43:39.334Z,99.99
2016-10-18T02:44:39.005Z,99.99
2016-10-18T02:45:39.302Z,99.99
2016-10-18T02:46:38.979Z,99.99
2016-10-18T02:47:38.960Z,99.99
2016-10-18T02:48:38.997Z,99.99
2016-10-18T02:49:38.923Z,99.99
2016-10-18T02:50:38.916Z,99.99
2016-10-18T02:51:38.896Z,99.99
2016-10-18T02:52:38.879Z,99.99
2016-10-18T02:53:38.865Z,99.99
2016-10-18T02:54:38.900Z,99.99
2016-10-18T02:55:38.830Z,99.99
2016-10-18T02:56:38.820Z,99.99
2016-10-18T02:57:38.808Z,99.99
2016-10-18T02:58:39.154Z,99.99
2016-10-18T02:59:38.770Z,99.99
2016-10-18T03:00:38.764Z,99.99
2016-10-18T03:01:38.743Z,99.99
2016-10-18T03:02:38.770Z,99.99
2016-10-18T03:03:38.708Z,99.99
2016-10-18T03:04:38.695Z,99.99
2016-10-18T03:05:38.679Z,99.99
2016-10-18T03:06:38.972Z,99.99
2016-10-18T03:07:38.644Z,99.99
2016-10-18T03:08:38.631Z,99.99
2016-10-18T03:09:38.621Z,99.99
2016-10-18T03:10:38.598Z,99.99
2016-10-18T03:11:38.580Z,99.99
2016-10-18T03:12:38.603Z,99.99
2016-10-18T03:13:38.549Z,99.99
2016-10-18T03:14:38.540Z,99.99
2016-10-18T03:15:38.520Z,99.99
2016-10-18T03:16:38.502Z,99.99
2016-10-18T03:17:38.488Z,99.99
2016-10-18T03:18:38.677Z,99.99
2016-10-18T03:19:38.456Z,99.99
2016-10-18T03:20:38.438Z,99.99
2016-10-18T03:21:38.740Z,99.99
2016-10-18T03:22:38.409Z,99.99
2016-10-18T03:23:38.396Z,99.99
2016-10-18T03:24:38.377Z,99.99
2016-10-18T03:25:38.364Z,99.99
2016-10-18T03:26:38.347Z,99.99
2016-10-18T03:27:38.329Z,99.99
2016-10-18T03:28:38.319Z,99.99
2016-10-18T03:29:38.612Z,99.99
2016-10-18T03:30:38.286Z,99.99
2016-10-18T03:31:38.582Z,99.99
2016-10-18T03:32:38.253Z,99.99
2016-10-18T03:33:38.239Z,99.99
2016-10-18T03:34:38.220Z,99.99
2016-10-18T03:35:38.204Z,99.99
2016-10-18T03:36:38.192Z,99.99
2016-10-18T03:37:38.172Z,99.99
2016-10-18T03:38:38.191Z,99.99
2016-10-18T03:39:38.459Z,99.99
2016-10-18T03:40:38.124Z,99.99
2016-10-18T03:41:38.110Z,99.99
2016-10-18T03:42:38.095Z,99.99
2016-10-18T03:43:38.429Z,99.99
2016-10-18T03:44:38.064Z,99.99
2016-10-18T03:45:38.050Z,99.99
2016-10-18T03:46:38.029Z,99.99
2016-10-18T03:47:38.015Z,99.99
2016-10-18T03:48:37.997Z,99.99
2016-10-18T03:49:37.983Z,99.99
2016-10-18T03:50:37.968Z,99.99
2016-10-18T03:51:38.264Z,99.99
2016-10-18T03:52:38.250Z,99.99
2016-10-18T03:53:37.923Z,99.99
2016-10-18T03:54:37.904Z,99.99
2016-10-18T03:55:37.891Z,99.99
2016-10-18T03:56:37.870Z,99.99
2016-10-18T03:57:38.171Z,99.99
2016-10-18T03:58:37.845Z,99.99
2016-10-18T03:59:37.829Z,99.99
2016-10-18T04:00:37.810Z,99.99
2016-10-18T04:01:38.109Z,99.99
2016-10-18T04:02:37.779Z,99.99
2016-10-18T04:03:37.759Z,99.99
2016-10-18T04:04:37.746Z,99.99
2016-10-18T04:05:37.732Z,99.99
2016-10-18T04:06:37.715Z,99.99
2016-10-18T04:07:37.700Z,99.99
2016-10-18T04:08:37.767Z,99.99
2016-10-18T04:09:37.664Z,99.99
2016-10-18T04:10:37.658Z,99.99
2016-10-18T04:11:37.633Z,99.99
2016-10-18T04:12:37.945Z,99.99
2016-10-18T04:13:37.617Z,99.99
2016-10-18T04:14:37.591Z,99.99
2016-10-18T04:15:37.571Z,99.99
2016-10-18T04:16:37.567Z,99.99
2016-10-18T04:17:37.543Z,99.99
2016-10-18T04:18:37.525Z,99.99
2016-10-18T04:19:37.824Z,99.99
2016-10-18T04:20:37.494Z,99.99
2016-10-18T04:21:37.478Z,99.99
2016-10-18T04:22:37.462Z,99.99
2016-10-18T04:23:37.443Z,99.99
2016-10-18T04:24:37.428Z,99.99
2016-10-18T04:25:37.459Z,99.99
2016-10-18T04:26:37.397Z,99.99
2016-10-18T04:27:37.384Z,99.99
2016-10-18T04:28:37.369Z,99.99
2016-10-18T04:29:37.358Z,99.99
2016-10-18T04:30:37.336Z,99.99
2016-10-18T04:31:37.318Z,99.99
2016-10-18T04:32:37.305Z,99.99
2016-10-18T04:33:37.287Z,99.99
2016-10-18T04:34:37.271Z,99.99
2016-10-18T04:35:37.253Z,99.99
2016-10-18T04:36:37.558Z,99.99
2016-10-18T04:37:37.230Z,99.99
2016-10-18T04:38:37.524Z,99.99
2016-10-18T04:39:37.234Z,99.99
2016-10-18T04:40:37.178Z,99.99
2016-10-18T04:41:37.163Z,99.99
2016-10-18T04:42:37.151Z,99.99
2016-10-18T04:43:37.132Z,99.99
2016-10-18T04:44:37.118Z,99.99
2016-10-18T04:45:37.413Z,99.99
2016-10-18T04:46:37.084Z,99.99
2016-10-18T04:47:37.119Z,99.99
2016-10-18T04:48:37.050Z,99.99
2016-10-18T04:49:37.041Z,99.99
2016-10-18T04:50:37.058Z,99.99
2016-10-18T04:51:37.004Z,99.99
2016-10-18T04:52:36.991Z,99.99
2016-10-18T04:53:36.973Z,99.99
2016-10-18T04:54:36.959Z,99.99
2016-10-18T04:55:36.989Z,99.99
2016-10-18T04:56:36.921Z,99.99
2016-10-18T04:57:36.946Z,99.99
2016-10-18T04:58:36.891Z,99.99
2016-10-18T04:59:36.876Z,99.99
2016-10-18T05:00:36.858Z,99.99
2016-10-18T05:01:36.844Z,99.99
2016-10-18T05:02:36.834Z,99.99
2016-10-18T05:03:36.810Z,99.99
2016-10-18T05:04:37.136Z,99.99
2016-10-18T05:05:36.786Z,99.99
2016-10-18T05:06:36.767Z,99.99
2016-10-18T05:07:36.751Z,99.99
2016-10-18T05:08:37.045Z,99.99
2016-10-18T05:09:36.716Z,99.99
2016-10-18T05:10:37.021Z,99.99
2016-10-18T05:11:36.687Z,99.99
2016-10-18T05:12:36.672Z,99.99
2016-10-18T05:13:36.650Z,99.99
2016-10-18T05:14:36.945Z,99.99
2016-10-18T05:15:36.662Z,99.99
2016-10-18T05:16:36.610Z,99.99
2016-10-18T05:17:36.589Z,99.99
2016-10-18T05:18:36.783Z,99.99
2016-10-18T05:19:36.866Z,99.99
2016-10-18T05:20:36.545Z,99.99
2016-10-18T05:21:36.528Z,99.99
2016-10-18T05:22:36.509Z,99.99
2016-10-18T05:23:36.492Z,99.99
2016-10-18T05:24:36.479Z,99.99
2016-10-18T05:25:36.459Z,99.99
2016-10-18T05:26:36.777Z,99.99
2016-10-18T05:27:36.431Z,99.99
2016-10-18T05:28:36.728Z,99.99
2016-10-18T05:29:36.717Z,99.99
2016-10-18T05:30:36.387Z,99.99
2016-10-18T05:31:36.689Z,99.99
2016-10-18T05:32:36.675Z,99.99
2016-10-18T05:33:36.386Z,99.99
2016-10-18T05:34:36.316Z,99.99
2016-10-18T05:35:36.302Z,99.99
2016-10-18T05:36:36.289Z,99.99
2016-10-18T05:37:36.288Z,99.99
2016-10-18T05:38:36.272Z,99.99
2016-10-18T05:39:36.244Z,99.99
2016-10-18T05:40:36.230Z,99.99
2016-10-18T05:41:36.216Z,99.99
2016-10-18T05:42:36.197Z,99.99
2016-10-18T05:43:36.178Z,99.99
2016-10-18T05:44:36.167Z,99.99
2016-10-18T05:45:36.151Z,99.99
2016-10-18T05:46:36.133Z,99.99
2016-10-18T05:47:36.438Z,99.99
2016-10-18T05:48:36.106Z,99.99
2016-10-18T05:49:36.086Z,99.99
2016-10-18T05:50:36.072Z,99.99
2016-10-18T05:51:36.059Z,99.99
2016-10-18T05:52:36.045Z,99.99
2016-10-18T05:53:36.025Z,99.99
2016-10-18T05:54:36.014Z,99.99
2016-10-18T05:55:35.996Z,99.99
2016-10-18T05:56:35.982Z,99.99
2016-10-18T05:57:35.964Z,99.99
2016-10-18T05:58:36.307Z,99.99
2016-10-18T05:59:35.938Z,99.99
2016-10-18T06:00:35.920Z,99.99
2016-10-18T06:01:35.903Z,99.99
2016-10-18T06:02:35.890Z,99.99
2016-10-18T06:03:35.878Z,99.99
2016-10-18T06:04:35.857Z,99.99
2016-10-18T06:05:35.844Z,99.99
2016-10-18T06:06:35.829Z,99.99
2016-10-18T06:07:36.125Z,99.99
2016-10-18T06:08:35.798Z,99.99
2016-10-18T06:09:35.788Z,99.99
2016-10-18T06:10:35.767Z,99.99
2016-10-18T06:11:35.757Z,99.99
2016-10-18T06:12:35.744Z,99.99
2016-10-18T06:13:36.061Z,99.99
2016-10-18T06:14:35.721Z,99.99
2016-10-18T06:15:36.009Z,99.99
2016-10-18T06:16:35.679Z,99.99
2016-10-18T06:17:35.665Z,99.99
2016-10-18T06:18:35.655Z,99.99
2016-10-18T06:19:35.634Z,99.99
2016-10-18T06:20:35.931Z,99.99
2016-10-18T06:21:35.917Z,99.99
2016-10-18T06:22:35.590Z,99.99
2016-10-18T06:23:35.573Z,99.99
2016-10-18T06:24:35.559Z,99.99
2016-10-18T06:25:35.599Z,99.99
2016-10-18T06:26:35.526Z,99.99
2016-10-18T06:27:35.515Z,99.99
2016-10-18T06:28:35.501Z,99.99
2016-10-18T06:29:35.801Z,99.99
2016-10-18T06:30:35.469Z,99.99
2016-10-18T06:31:35.456Z,99.99
2016-10-18T06:32:35.442Z,99.99
2016-10-18T06:33:35.738Z,99.99
2016-10-18T06:34:35.411Z,99.99
2016-10-18T06:35:35.440Z,99.99
2016-10-18T06:36:35.389Z,99.99
2016-10-18T06:37:35.369Z,99.99
2016-10-18T06:38:35.354Z,99.99
2016-10-18T06:39:35.399Z,99.99
2016-10-18T06:40:35.326Z,99.99
2016-10-18T06:41:35.308Z,99.99
2016-10-18T06:42:35.340Z,99.99
2016-10-18T06:43:35.280Z,99.99
2016-10-18T06:44:35.263Z,99.99
2016-10-18T06:45:35.249Z,99.99
2016-10-18T06:46:35.235Z,99.99
2016-10-18T06:47:35.218Z,99.99
2016-10-18T06:48:35.205Z,99.99
2016-10-18T06:49:35.195Z,99.99
2016-10-18T06:50:35.179Z,99.99
2016-10-18T06:51:35.166Z,99.99
2016-10-18T06:52:35.145Z,99.99
2016-10-18T06:53:35.134Z,99.99
2016-10-18T06:54:35.118Z,99.99
2016-10-18T06:55:35.110Z,99.99
2016-10-18T06:56:35.091Z,99.99
2016-10-18T06:57:35.085Z,99.99
2016-10-18T06:58:35.061Z,99.99
2016-10-18T06:59:35.085Z,99.99
2016-10-18T07:00:35.034Z,99.99
2016-10-18T07:01:35.018Z,99.99
2016-10-18T07:02:35.191Z,99.99
2016-10-18T07:03:34.999Z,99.99
2016-10-18T07:04:35.288Z,99.99
2016-10-18T07:05:35.273Z,99.99
2016-10-18T07:06:34.944Z,99.99
2016-10-18T07:07:34.927Z,99.99
2016-10-18T07:08:35.230Z,99.99
2016-10-18T07:09:34.906Z,99.99
2016-10-18T07:10:34.888Z,99.99
2016-10-18T07:11:34.874Z,99.99
2016-10-18T07:12:34.860Z,99.99
2016-10-18T07:13:34.845Z,99.99
2016-10-18T07:14:34.829Z,99.99
2016-10-18T07:15:34.814Z,99.99
2016-10-18T07:16:34.807Z,99.99
2016-10-18T07:17:34.790Z,99.99
2016-10-18T07:18:34.977Z,99.99
2016-10-18T07:19:34.755Z,99.99
2016-10-18T07:20:34.741Z,99.99
2016-10-18T07:21:34.730Z,99.99
2016-10-18T07:22:34.765Z,99.99
2016-10-18T07:23:34.697Z,99.99
2016-10-18T07:24:34.691Z,99.99
2016-10-18T07:25:34.720Z,99.99
2016-10-18T07:26:34.660Z,99.99
2016-10-18T07:27:34.643Z,99.99
2016-10-18T07:28:34.628Z,99.99
2016-10-18T07:29:34.625Z,99.99
2016-10-18T07:30:34.920Z,99.99
2016-10-18T07:31:34.914Z,99.99
2016-10-18T07:32:34.584Z,99.99
2016-10-18T07:33:34.560Z,99.99
2016-10-18T07:34:34.860Z,99.99
2016-10-18T07:35:34.530Z,99.99
2016-10-18T07:36:34.521Z,99.99
2016-10-18T07:37:34.504Z,99.99
2016-10-18T07:38:34.491Z,99.99
2016-10-18T07:39:34.477Z,99.99
2016-10-18T07:40:34.462Z,99.99
2016-10-18T07:41:34.452Z,99.99
2016-10-18T07:42:34.432Z,99.99
2016-10-18T07:43:34.418Z,99.99
2016-10-18T07:44:34.416Z,99.99
2016-10-18T07:45:34.396Z,99.99
2016-10-18T07:46:34.385Z,99.99
2016-10-18T07:47:34.368Z,99.99
2016-10-18T07:48:34.352Z,99.99
2016-10-18T07:49:34.335Z,99.99
2016-10-18T07:50:34.324Z,99.99
2016-10-18T07:51:34.314Z,99.99
2016-10-18T07:52:34.299Z,99.99
2016-10-18T07:53:34.283Z,99.99
2016-10-18T07:54:34.278Z,99.99
2016-10-18T07:55:34.257Z,99.99
2016-10-18T07:56:34.564Z,99.99
2016-10-18T07:57:34.233Z,99.99
2016-10-18T07:58:34.216Z,99.99
2016-10-18T07:59:34.202Z,99.99
2016-10-18T08:00:34.191Z,99.99
2016-10-18T08:01:34.180Z,99.99
2016-10-18T08:02:34.163Z,99.99
2016-10-18T08:03:34.152Z,99.99
2016-10-18T08:04:34.131Z,99.99
2016-10-18T08:05:34.122Z,99.99
2016-10-18T08:06:34.475Z,99.99
2016-10-18T08:07:34.105Z,99.99
2016-10-18T08:08:34.086Z,99.99
2016-10-18T08:09:34.095Z,99.99
2016-10-18T08:10:34.076Z,99.99
2016-10-18T08:11:34.379Z,99.99
2016-10-18T08:12:34.034Z,99.99
2016-10-18T08:13:34.017Z,99.99
2016-10-18T08:14:34.006Z,99.99
2016-10-18T08:15:33.989Z,99.99
2016-10-18T08:16:33.977Z,99.99
2016-10-18T08:17:33.964Z,99.99
2016-10-18T08:18:33.949Z,99.99
2016-10-18T08:19:33.943Z,99.99
2016-10-18T08:20:33.929Z,99.99
2016-10-18T08:21:33.916Z,99.99
2016-10-18T08:22:33.900Z,99.99
2016-10-18T08:23:34.247Z,99.99
2016-10-18T08:24:33.877Z,99.99
2016-10-18T08:25:33.868Z,99.99
2016-10-18T08:26:33.850Z,99.99
2016-10-18T08:27:33.868Z,99.99
2016-10-18T08:28:33.828Z,99.99
2016-10-18T08:29:33.809Z,99.99
2016-10-18T08:30:34.115Z,99.99
2016-10-18T08:31:33.790Z,99.99
2016-10-18T08:32:33.775Z,99.99
2016-10-18T08:33:33.759Z,99.99
2016-10-18T08:34:33.749Z,99.99
2016-10-18T08:35:34.052Z,99.99
2016-10-18T08:36:33.726Z,99.99
2016-10-18T08:37:33.708Z,99.99
2016-10-18T08:38:34.010Z,99.99
2016-10-18T08:39:33.689Z,99.99
2016-10-18T08:40:33.673Z,99.99
2016-10-18T08:41:33.658Z,99.99
2016-10-18T08:42:33.647Z,99.99
2016-10-18T08:43:33.634Z,99.99
2016-10-18T08:44:33.622Z,99.99
2016-10-18T08:45:33.612Z,99.99
2016-10-18T08:46:33.600Z,99.99
2016-10-18T08:47:33.584Z,99.99
2016-10-18T08:48:33.575Z,99.99
2016-10-18T08:49:33.603Z,99.99
2016-10-18T08:50:33.550Z,99.99
2016-10-18T08:51:33.534Z,99.99
2016-10-18T08:52:33.534Z,99.99
2016-10-18T08:53:33.518Z,99.99
2016-10-18T08:54:33.507Z,99.99
2016-10-18T08:55:33.496Z,99.99
2016-10-18T08:56:33.472Z,99.99
2016-10-18T08:57:33.467Z,99.99
2016-10-18T08:58:33.459Z,99.99
2016-10-18T08:59:33.442Z,99.99
2016-10-18T09:00:33.427Z,99.99
2016-10-18T09:01:33.434Z,99.99
2016-10-18T09:02:33.404Z,99.99
2016-10-18T09:03:33.398Z,99.99
2016-10-18T09:04:33.401Z,99.99
2016-10-18T09:05:33.369Z,99.99
2016-10-18T09:06:33.355Z,99.99
2016-10-18T09:07:33.370Z,99.99
2016-10-18T09:08:33.341Z,99.99
2016-10-18T09:09:33.661Z,99.99
2016-10-18T09:10:33.333Z,99.99
2016-10-18T09:11:33.297Z,99.99
2016-10-18T09:12:33.291Z,99.99
2016-10-18T09:13:33.274Z,99.99
2016-10-18T09:14:33.262Z,99.99
2016-10-18T09:15:33.252Z,99.99
2016-10-18T09:16:33.242Z,99.99
2016-10-18T09:17:33.233Z,99.99
2016-10-18T09:18:33.419Z,99.99
2016-10-18T09:19:33.521Z,99.99
2016-10-18T09:20:33.199Z,99.99
2016-10-18T09:21:33.181Z,99.99
2016-10-18T09:22:33.177Z,99.99
2016-10-18T09:23:33.163Z,99.99
2016-10-18T09:24:33.168Z,99.99
2016-10-18T09:25:33.151Z,99.99
2016-10-18T09:26:33.127Z,99.99
2016-10-18T09:27:33.120Z,99.99
2016-10-18T09:28:33.129Z,99.99
2016-10-18T09:29:33.097Z,99.99
2016-10-18T09:30:33.099Z,99.99
2016-10-18T09:31:33.117Z,99.99
2016-10-18T09:32:33.372Z,99.99
2016-10-18T09:33:33.053Z,99.99
2016-10-18T09:34:33.039Z,99.99
2016-10-18T09:35:33.033Z,99.99
2016-10-18T09:36:33.017Z,99.99
2016-10-18T09:37:33.007Z,99.99
2016-10-18T09:38:33.308Z,99.99
2016-10-18T09:39:33.327Z,99.99
2016-10-18T09:40:33.287Z,99.99
2016-10-18T09:41:32.961Z,99.99
2016-10-18T09:42:33.266Z,99.99
2016-10-18T09:43:32.937Z,99.99
2016-10-18T09:44:32.929Z,99.99
2016-10-18T09:45:32.933Z,99.99
2016-10-18T09:46:32.905Z,99.99
2016-10-18T09:47:32.894Z,99.99
2016-10-18T09:48:32.886Z,99.99
2016-10-18T09:49:33.188Z,99.99
2016-10-18T09:50:32.887Z,99.99
2016-10-18T09:51:32.851Z,99.99
2016-10-18T09:52:32.842Z,99.99
2016-10-18T09:53:32.828Z,99.99
2016-10-18T09:54:32.820Z,99.99
2016-10-18T09:55:32.802Z,99.99
2016-10-18T09:56:33.105Z,99.99
2016-10-18T09:57:32.786Z,99.99
2016-10-18T09:58:32.767Z,99.99
2016-10-18T09:59:32.760Z,99.99
2016-10-18T10:00:32.748Z,99.99
2016-10-18T10:01:32.736Z,99.99
2016-10-18T10:02:32.739Z,97.9
2016-10-18T10:03:32.711Z,96.47
2016-10-18T10:04:33.014Z,94.74
2016-10-18T10:05:32.738Z,95.12
2016-10-18T10:06:32.675Z,94.45
2016-10-18T10:07:32.671Z,92.63
2016-10-18T10:08:32.660Z,92.35
2016-10-18T10:09:32.659Z,92.97
2016-10-18T10:10:32.634Z,91.72
2016-10-18T10:11:32.643Z,91.44
2016-10-18T10:12:32.614Z,91.72
2016-10-18T10:13:32.611Z,92.87
2016-10-18T10:14:32.594Z,92.58
2016-10-18T10:15:32.581Z,91.34
2016-10-18T10:16:32.573Z,90.05
2016-10-18T10:17:32.562Z,88.51
2016-10-18T10:18:32.556Z,88.76
2016-10-18T10:19:32.579Z,89.33
2016-10-18T10:20:32.589Z,88.85
2016-10-18T10:21:32.529Z,88.85
2016-10-18T10:22:32.842Z,88.37
2016-10-18T10:23:32.822Z,89.04
2016-10-18T10:24:32.495Z,89.52
2016-10-18T10:25:32.481Z,89.9
2016-10-18T10:26:32.471Z,89.62
2016-10-18T10:27:32.464Z,89.23
2016-10-18T10:28:32.453Z,88.66
2016-10-18T10:29:32.459Z,89.14
2016-10-18T10:30:32.431Z,90.48
2016-10-18T10:31:32.424Z,89.62
2016-10-18T10:32:32.407Z,87.8
2016-10-18T10:33:32.416Z,86.84
2016-10-18T10:34:32.401Z,87.99
2016-10-18T10:35:32.395Z,87.9
2016-10-18T10:36:32.682Z,88.37
2016-10-18T10:37:32.357Z,89.52
2016-10-18T10:38:32.350Z,89.23
2016-10-18T10:39:32.392Z,89.43
2016-10-18T10:40:32.328Z,90.05
2016-10-18T10:41:32.636Z,89.23
2016-10-18T10:42:32.317Z,89.52
2016-10-18T10:43:32.300Z,90.09
2016-10-18T10:44:32.288Z,89.9
2016-10-18T10:45:32.278Z,89.72
2016-10-18T10:46:32.266Z,90.48
2016-10-18T10:47:32.257Z,89.62
2016-10-18T10:48:32.245Z,88.95
2016-10-18T10:49:32.235Z,89.33
2016-10-18T10:50:32.226Z,89.9
2016-10-18T10:51:32.527Z,89.52
2016-10-18T10:52:32.204Z,88.95
2016-10-18T10:53:32.508Z,88.37
2016-10-18T10:54:32.234Z,88.66
2016-10-18T10:55:32.183Z,88.37
2016-10-18T10:56:32.173Z,87.51
2016-10-18T10:57:32.159Z,87.46
2016-10-18T10:58:32.149Z,87.17
2016-10-18T10:59:32.148Z,86.46
2016-10-18T11:00:32.128Z,86.17
2016-10-18T11:01:32.125Z,86.65
2016-10-18T11:02:32.106Z,87.51
2016-10-18T11:03:32.103Z,87.32
2016-10-18T11:04:32.088Z,87.9
2016-10-18T11:05:32.599Z,87.55
2016-10-18T11:06:32.389Z,86.41
2016-10-18T11:07:32.064Z,86.02
2016-10-18T11:08:32.044Z,86.02
2016-10-18T11:09:32.037Z,85.35
2016-10-18T11:10:32.025Z,85.93
2016-10-18T11:11:32.018Z,85.06
2016-10-18T11:12:32.320Z,84.39
2016-10-18T11:13:32.308Z,84.58
2016-10-18T11:14:31.990Z,84.58
2016-10-18T11:15:31.972Z,85.45
2016-10-18T11:16:31.970Z,83.44
2016-10-18T11:17:31.950Z,83.63
2016-10-18T11:18:31.946Z,82.96
2016-10-18T11:19:31.986Z,83.25
2016-10-18T11:20:31.927Z,82.76
2016-10-18T11:21:31.921Z,82.96
2016-10-18T11:22:31.928Z,82.52
2016-10-18T11:23:32.208Z,82.57
2016-10-18T11:24:31.887Z,82.48
2016-10-18T11:25:31.921Z,82.48
2016-10-18T11:26:31.873Z,83.92
2016-10-18T11:27:31.859Z,83.44
2016-10-18T11:28:31.858Z,82.67
2016-10-18T11:29:31.839Z,84.39
2016-10-18T11:30:31.879Z,83.34
2016-10-18T11:31:31.817Z,83.92
2016-10-18T11:32:31.811Z,84.68
2016-10-18T11:33:31.798Z,84.2
2016-10-18T11:34:31.804Z,83.15
2016-10-18T11:35:32.123Z,81.81
2016-10-18T11:36:31.827Z,81.9
2016-10-18T11:37:32.071Z,81.9
2016-10-18T11:38:31.755Z,82.29
2016-10-18T11:39:31.743Z,81.62
2016-10-18T11:40:31.731Z,81.62
2016-10-18T11:41:32.041Z,81.23
2016-10-18T11:42:31.717Z,80.76
2016-10-18T11:43:32.017Z,80.27
2016-10-18T11:44:31.703Z,80.56
2016-10-18T11:45:31.740Z,80.94
2016-10-18T11:46:31.673Z,81.33
2016-10-18T11:47:31.667Z,81.23
2016-10-18T11:48:31.657Z,81.04
2016-10-18T11:49:31.644Z,80.94
2016-10-18T11:50:31.638Z,80.94
2016-10-18T11:51:31.624Z,80.99
2016-10-18T11:52:31.617Z,81.37
2016-10-18T11:53:31.610Z,81.46
2016-10-18T11:54:31.597Z,79.74
2016-10-18T11:55:31.588Z,80.03
2016-10-18T11:56:31.582Z,79.74
2016-10-18T11:57:31.570Z,79.16
2016-10-18T11:58:31.561Z,80.32
2016-10-18T11:59:31.557Z,79.64
2016-10-18T12:00:31.543Z,78.97
2016-10-18T12:01:31.532Z,79.93
2016-10-18T12:02:31.526Z,79.07
2016-10-18T12:03:31.518Z,78.78
2016-10-18T12:04:31.510Z,80.03
2016-10-18T12:05:31.541Z,80.7
2016-10-18T12:06:31.798Z,79.16
2016-10-18T12:07:31.819Z,79.26
2016-10-18T12:08:31.472Z,78.49
2016-10-18T12:09:31.782Z,78.59
2016-10-18T12:10:31.452Z,78.02
2016-10-18T12:11:32.044Z,78.3
2016-10-18T12:12:31.755Z,77.92
2016-10-18T12:13:31.424Z,78.3
2016-10-18T12:14:31.414Z,76.57
2016-10-18T12:15:31.409Z,74.95
2016-10-18T12:16:31.400Z,74.85
2016-10-18T12:17:31.387Z,74.66
2016-10-18T12:18:31.382Z,73.9
2016-10-18T12:19:31.373Z,73.22
2016-10-18T12:20:31.366Z,72.55
2016-10-18T12:21:31.354Z,72.64
2016-10-18T12:22:31.397Z,71.88
2016-10-18T12:23:31.340Z,72.36
2016-10-18T12:24:31.330Z,72.64
2016-10-18T12:25:31.318Z,72.84
2016-10-18T12:26:31.311Z,72.94
2016-10-18T12:27:31.301Z,72.68
2016-10-18T12:28:31.293Z,72.3
2016-10-18T12:29:31.283Z,73.07
2016-10-18T12:30:31.274Z,73.07
2016-10-18T12:31:31.579Z,73.26
2016-10-18T12:32:31.257Z,72.01
2016-10-18T12:33:31.252Z,71.82
2016-10-18T12:34:31.274Z,72.3
2016-10-18T12:35:31.229Z,71.53
2016-10-18T12:36:31.221Z,72.97
2016-10-18T12:37:31.215Z,72.2
2016-10-18T12:38:31.204Z,72.17
2016-10-18T12:39:31.196Z,72.94
2016-10-18T12:40:31.187Z,73.8
2016-10-18T12:41:31.491Z,72.74
2016-10-18T12:42:31.173Z,73.86
2016-10-18T12:43:31.161Z,73.57
2016-10-18T12:44:31.478Z,73.95
2016-10-18T12:45:31.164Z,74.05
2016-10-18T12:46:31.138Z,73.76
2016-10-18T12:47:31.127Z,73.76
2016-10-18T12:48:31.118Z,73.66
2016-10-18T12:49:31.107Z,73.66
2016-10-18T12:50:31.413Z,74.24
2016-10-18T12:51:31.089Z,73.76
2016-10-18T12:52:31.077Z,74.24
2016-10-18T12:53:31.385Z,74.62